青島 の空港の天気 - METARとTAF

青島流亭国際空港 ( ZSQD / TAO ) - 中国 山東省青島市
飛行場実況気象(Metar)
観測時間07/15 19:00 CST (07/15 11:00 UTC)
風向・風速南南東 2m/s
視程5000m
天気現象もや
なし
気温25℃
湿度78%
気圧1004hPa
METARZSQD 151100Z 16002MPS 5000 BR NSC 25/21 Q1004 NOSIG
過去の天気等 Google飛行場航空写真 Wunderground天気予報

過去48時間のMETAR

飛行場予報(TAF)
発表時間: 7/15 12:50 CST (7/15 04:50 UTC)
予報対象時間: 15日14時 CST ~ 16日14時 CST
風向・風速南 4m/s
視程3500m
天気現象煙霧
なし
15日14時 CST ~ 15日20時 CST に一時的に
天気現象雷雨
全天の8割程度の雲 雲底高度 610m
全天の4割程度の積乱雲 雲底高度 910m
TAF AMD ZSQD 150450Z 1506/1606 18004MPS 3500 HZ NSC TX31/1506Z TN21/1520Z
TEMPO 1506/1512 TSRA BKN020 SCT030CB